Logo AVAMET
Benvolgut visitant, si us plau, ingressa Recuperar contrasenya
AVAMET paisatges

València l'Albufera/Tancat de la Pipa

Dades diàries. Acumulats / Últims 30 dies disponibles

Data Temperatura (°C) Humitat rel. (%) Pressió rel. (hPa) Vent (km/h) Precipitació
Mínima Mitjana Màxima Amplitud
tèrmica
Mínima Mitjana Màxima Mínima Mitjana Màxima Predom. Mitjana Ràfega
màxima
Total
(mm)
Índex-n
Mínima Mitjana Màxima Mínima Mitjana Màxima n
0 a 1
P0 max
mm 5'
Dades mensuals acumulades fins l'últim dia disponible
10/2020 9,3 14,3 18,3 18,5 18,8 22,8 30,8 21,5 27 69 97 990 1.016 1.027   11,9 90,1 3,0
Dades anuals acumulades fins l'últim dia disponible
2020 4,6 15,7 25,5 19,2 9,2 22,6 33,4 28,8 25 77 98 990 1.017 1.035   11,1 103,0 325,8
Últims 30 dies disponibles
31-10-2020 13,5     17,0     20,7 7,2 77 92 97 1.022 1.024 1.025 SO 6,5 22,5 0,0
30-10-2020 13,1     16,7     20,3 7,2 68 87 94 1.023 1.025 1.026 WNW 7,4 27,4 0,0
29-10-2020 13,4     16,9     21,6 8,2 60 81 92 1.023 1.025 1.027 NW 6,8 24,1 0,0
28-10-2020 13,8     17,6     22,2 8,4 49 66 85 1.018 1.020 1.024 WSW 8,9 27,4 0,0
27-10-2020 11,5     16,3     21,0 9,5 41 53 65 1.015 1.018 1.020 W 17,4 41,8 0,0
26-10-2020 14,6     17,6     20,7 6,1 36 52 68 1.010 1.014 1.019 W 24,8 53,1 0,0
25-10-2020 15,6     19,6     23,7 8,1 45 58 72 1.010 1.016 1.020 W 22,4 59,5 0,0
24-10-2020 14,4     18,5     23,2 8,8 44 61 74 1.020 1.022 1.025 W 15,8 35,4 0,0
23-10-2020 17,2     19,6     23,3 6,1 43 68 96 1.016 1.019 1.023 W 17,7 45,1 0,0
22-10-2020 17,4     19,3     21,3 3,9 79 89 95 1.012 1.014 1.016 W 3,5 16,1 1,8
21-10-2020 18,2     20,2     23,6 5,4 66 88 95 1.008 1.010 1.013 SE 7,4 37,0 0,0
20-10-2020 14,8     18,2     21,5 6,7 84 90 95 1.010 1.015 1.018 ENE 6,8 29,0 0,0
19-10-2020 13,8     17,7     20,9 7,1 73 84 93 1.019 1.020 1.022 SE 8,0 24,1 0,0
18-10-2020 11,3     16,1     20,8 9,5 63 80 90 1.019 1.020 1.022 ESE 7,4 24,1 0,0
17-10-2020 11,0     15,6     20,2 9,2 47 70 82 1.015 1.017 1.019 SE 10,6 35,4 0,0
16-10-2020 9,3     14,5     18,8 9,5 37 59 81 1.016 1.017 1.019 SE 10,3 35,4 0,0
15-10-2020 11,3     16,4     22,3 11,0 29 52 83 1.013 1.014 1.017 N 8,9 38,6 0,0
14-10-2020 14,1     17,9     20,7 6,6 63 76 86 1.008 1.010 1.013 WSW 8,5 49,9 0,4
13-10-2020 12,7     19,7     27,4 14,7 35 58 80 1.009 1.014 1.019 W 9,7 33,8 0,0
12-10-2020 12,7     17,0     21,8 9,1 34 55 74 1.018 1.020 1.022 WNW 10,5 37,0 0,0
11-10-2020 16,7     18,9     20,9 4,2 37 57 93 1.019 1.021 1.022 ESE 10,3 37,0 0,0
10-10-2020 18,3     20,8     23,4 5,1 78 87 93 1.019 1.021 1.022 NW 8,0 27,4 0,0
09-10-2020 17,6     20,5     23,2 5,6 77 89 94 1.020 1.021 1.022 ENE 9,7 30,6 0,0
08-10-2020 15,7     20,4     23,9 8,2 72 82 92 1.021 1.023 1.025 SE 9,3 35,4 0,0
07-10-2020 17,4     22,1     27,8 10,4 41 67 85 1.019 1.020 1.023 SE 8,4 22,5 0,0
06-10-2020 13,3     19,2     26,3 13,0 39 66 81 1.017 1.020 1.021 SE 9,5 29,0 0,0
05-10-2020 14,9     19,1     23,5 8,6 32 59 74 1.011 1.015 1.020 SE 10,6 29,0 0,0
04-10-2020 12,9     18,3     23,4 10,5 44 55 70 1.006 1.009 1.011 W 19,5 53,1 0,0
03-10-2020 13,0     17,2     22,6 9,6 37 54 66 1.001 1.005 1.010 W 22,4 49,9 0,0
02-10-2020 14,1     20,3     26,5 12,4 45 60 87 990 997 1.005 W 26,1 90,1 0,8
Últims 13 mesos disponibles
09/2020 12,9 18,8 21,9 22,9 22,4 26,6 30,1 17,2 46 73 86 1.010 1.016 1.023 SE 10,1 57,9 49,0
08/2020 15,8 22,5 25,5 25,2 24,2 29,0 33,4 17,6 57 79 87 1.003 1.013 1.018 SE 9,2 43,5 0,6
07/2020 19,7 22,4 24,6 25,6 26,3 28,0 31,7 12,0 68 82 86 1.010 1.015 1.019 SE 9,5 54,7 7,4
06/2020 16,2 19,4 22,6 22,7 19,8 25,9 31,2 15,0 43 78 88 1.004 1.013 1.020 N 10,0 66,0 3,0
05/2020 13,4 16,8 20,5 20,5 19,6 23,7 31,0 17,6 54 76 89 1.004 1.016 1.027 N 10,5 64,4 8,6
04/2020 9,1 12,9 18,1 15,9 14,9 18,8 26,1 17,0 50 82 94 1.005 1.016 1.026 N 10,5 61,2 33,4
03/2020 6,1 11,1 17,0 14,1 10,7 17,3 23,0 16,9 50 76 94 1.006 1.017 1.027 N 15,8 103,0 47,4
02/2020 7,4 10,8 14,4 14,6 14,3 19,0 26,0 18,6 55 78 92 1.013 1.025 1.033 NNE 10,7 59,5 1,2
01/2020 4,6 8,3 15,1 11,3 9,2 15,1 20,3 15,7 62 80 93 1.016 1.025 1.033 NE 12,3 95,0 147,6
12/2019 6,8 11,4 17,2 14,1 13,7 17,3 24,4 17,6 56 74 91 1.002 1.019 1.033 WSW 15,4 107,8 91,2
11/2019 6,0 12,5 21,4 15,6 14,9 19,3 27,6 21,6 49 63 83 998 1.010 1.018 9,7 70,8 6,0
10/2019 12,0 16,2 19,9 19,9 16,6 24,1 33,7 21,7 53 76 89 1.007 1.016 1.022 0,0 23,4
09/2019 15,2 20,0 24,1 23,5 22,6 26,6 32,7 17,5 49 79 89 1.009 1.017 1.024 ESE 10,4 77,2 70,0
Tots els anys disponibles
2019 2,1 14,6 25,9 18,1 11,2 21,8 39,3 37,2 42 74 95 994 1.016 1.034 ESE 10,2 107,8 268,2
2018 3,1 14,9 25,2 18,2 9,0 21,6 34,3 31,2 WSW 11,4 83,7 805,6
2017 2,1 14,7 25,6 18,2 9,4 21,6 35,0 32,9 ESE 10,9 93,3 307,0
2016 3,7 15,2 25,4 18,4 11,3 21,6 34,2 30,5 ESE 11,9 91,7 453,4
Temperatura (°C)
Humitat relativa (%)
Velocitat del vent i ràfega màxima (km/h)
Direcció del vent (°)
Pressió (hPa)
Precipitació (mm)
Nota sobre les dades: s'avisa a l'usuari de la provisionalitat i no oficialitat d'aquestes dades
Logo AVAMET blanc
Web allotjada a Sollutia
Llicència de Creative CommonsLa web d'AVAMET i els seus continguts estan subjectes a una llicència de
Reconeixement - No Comercial - Compartir igual
Avís legal - Política de privacitat - Política de cookies
NOVES ESTACIONS: El Fondó dels Frares (Estació pròpia d'AVAMET nº34), Onda - Raval de St. Josep (Soci), Agres - Foia Ampla de Mariola (Socis), Beniarjó (Inforatge), Sueca - Mareny de Barraquetes (Inforatge), La Vilavella - Centre (Ajuntament Soci), Alfondeguilla (Soci), Santa Magdalena de Polpís (Soci), Benafigos (Ajuntament Soci) - - -